Time;durP1;ratioP1;P1;durP2;ratioP2;P2;SDS_P1;SDS_P2;PMS_P1;PMS_P2;Temp;Humidity;BMP_temperature;BMP_pressure;BME280_temperature;BME280_humidity;BME280_pressure;Samples;Min_cycle;Max_cycle;Signal;HPM_P1;HPM_P2
2022/09/01 00:02:33;;;;;;;4.85;2.58;;;24.60;54.10;;;;;;6107260;28;80461;-58
2022/09/01 00:05:33;;;;;;;5.50;2.67;;;24.60;53.90;;;;;;6112495;28;80904;-58
2022/09/01 00:08:34;;;;;;;8.25;3.47;;;24.60;53.80;;;;;;6129202;28;81563;-58
2022/09/01 00:11:34;;;;;;;5.03;2.70;;;24.60;53.70;;;;;;6115085;28;80584;-58
2022/09/01 00:14:35;;;;;;;4.13;2.45;;;24.60;53.60;;;;;;6106889;28;80103;-58
2022/09/01 00:17:35;;;;;;;5.15;2.78;;;24.60;53.60;;;;;;6116165;28;80424;-58
2022/09/01 00:20:35;;;;;;;7.93;2.75;;;24.60;53.40;;;;;;6102171;28;82795;-59
2022/09/01 00:23:36;;;;;;;2.92;2.00;;;24.60;53.50;;;;;;6116563;28;80430;-59
2022/09/01 00:26:36;;;;;;;5.90;2.72;;;24.60;53.30;;;;;;6117191;28;80517;-61
2022/09/01 00:29:37;;;;;;;4.45;2.38;;;24.60;53.20;;;;;;6123917;28;81394;-61
2022/09/01 00:32:37;;;;;;;3.70;2.10;;;24.60;53.30;;;;;;6116787;28;80523;-61
2022/09/01 00:35:38;;;;;;;2.85;2.17;;;24.60;53.10;;;;;;6127853;28;81039;-61
2022/09/01 00:38:38;;;;;;;5.53;3.00;;;24.60;53.10;;;;;;6126819;28;83491;-61
2022/09/01 00:41:41;;;;;;;2.92;1.85;;;24.60;53.10;;;;;;6125906;28;83627;-61
2022/09/01 00:44:42;;;;;;;4.72;2.70;;;24.60;53.30;;;;;;6117952;28;82356;-58
2022/09/01 00:47:42;;;;;;;2.35;1.80;;;24.50;53.50;;;;;;6130338;28;81177;-59
2022/09/01 00:50:43;;;;;;;4.38;2.10;;;24.50;53.50;;;;;;6125754;28;83959;-59
2022/09/01 00:53:44;;;;;;;3.10;2.13;;;24.60;53.60;;;;;;6152979;28;82939;-58
2022/09/01 00:56:45;;;;;;;2.88;2.03;;;24.50;53.60;;;;;;6125751;28;83600;-58
2022/09/01 00:59:45;;;;;;;6.18;2.53;;;24.50;53.60;;;;;;6126659;28;83691;-58
2022/09/01 01:02:46;;;;;;;4.88;2.58;;;24.50;53.60;;;;;;6137539;28;84598;-61
2022/09/01 01:05:53;;;;;;;4.18;2.38;;;24.50;53.60;;;;;;6130154;28;81446;-61
2022/09/01 01:08:57;;;;;;;4.20;2.10;;;24.50;53.70;;;;;;6122699;28;82098;-61
2022/09/01 01:11:59;;;;;;;17.42;2.30;;;24.50;53.70;;;;;;6122070;28;81092;-61
2022/09/01 01:14:59;;;;;;;4.50;2.00;;;24.50;53.90;;;;;;6115720;28;80322;-61
2022/09/01 01:18:00;;;;;;;3.20;1.98;;;24.50;53.90;;;;;;6114963;28;80557;-61
2022/09/01 01:24:20;;;;;;;11.75;2.38;;;24.50;54.10;;;;;;6121855;28;80959;-61
2022/09/01 01:27:21;;;;;;;3.28;2.10;;;24.40;54.10;;;;;;6120796;28;83809;-61
2022/09/01 01:30:22;;;;;;;4.20;2.08;;;24.40;54.10;;;;;;6142866;28;80550;-62
2022/09/01 01:33:23;;;;;;;4.00;2.25;;;24.40;54.10;;;;;;6126979;28;82143;-61
2022/09/01 01:36:31;;;;;;;4.88;2.47;;;24.40;54.00;;;;;;6151470;28;82890;-62
2022/09/01 01:39:33;;;;;;;4.35;2.30;;;24.40;53.90;;;;;;6149832;28;82844;-63
2022/09/01 01:42:33;;;;;;;4.22;2.40;;;24.40;53.90;;;;;;6141891;28;80466;-63
2022/09/01 01:45:34;;;;;;;3.40;2.17;;;24.40;53.90;;;;;;6133180;28;83426;-63
2022/09/01 01:48:35;;;;;;;5.95;2.22;;;24.40;53.90;;;;;;6147519;28;81923;-63
2022/09/01 01:51:36;;;;;;;3.22;2.25;;;24.40;53.70;;;;;;6148582;28;80596;-61
2022/09/01 01:54:37;;;;;;;3.40;1.80;;;24.40;53.90;;;;;;6141616;28;84090;-62
2022/09/01 01:57:38;;;;;;;3.25;2.00;;;24.40;53.70;;;;;;6126102;28;80425;-61
2022/09/01 02:00:38;;;;;;;5.68;2.97;;;24.40;53.70;;;;;;6150972;28;82394;-61
2022/09/01 02:03:39;;;;;;;4.30;1.67;;;24.40;53.60;;;;;;6126557;28;80985;-61
2022/09/01 02:06:44;;;;;;;2.97;2.13;;;24.40;53.70;;;;;;6127444;28;80680;-60
2022/09/01 02:09:47;;;;;;;;;;;24.40;53.70;;;;;;6132318;28;81681;-63
2022/09/01 02:12:49;;;;;;;3.00;1.75;;;24.40;53.70;;;;;;6141267;28;81375;-63
2022/09/01 02:15:49;;;;;;;3.55;2.10;;;24.40;53.80;;;;;;6148820;28;80036;-59
2022/09/01 02:18:50;;;;;;;8.27;1.85;;;24.40;53.90;;;;;;6142511;28;81775;-57
2022/09/01 02:21:54;;;;;;;3.50;2.00;;;24.40;54.00;;;;;;6113863;28;81545;-60
2022/09/01 02:24:56;;;;;;;3.50;2.15;;;24.40;54.00;;;;;;6123954;28;81134;-60
2022/09/01 02:27:56;;;;;;;2.95;1.98;;;24.40;54.10;;;;;;6122334;28;80466;-60
2022/09/01 02:30:58;;;;;;;4.53;2.47;;;24.40;54.10;;;;;;6126222;28;81689;-59
2022/09/01 02:33:59;;;;;;;5.75;2.35;;;24.40;54.10;;;;;;6122153;28;80203;-60
2022/09/01 02:37:00;;;;;;;2.97;2.15;;;24.40;54.10;;;;;;6121612;28;83881;-57
2022/09/01 02:40:00;;;;;;;5.35;2.50;;;24.40;54.10;;;;;;6142660;28;82729;-57
2022/09/01 02:43:01;;;;;;;5.00;1.83;;;24.40;54.10;;;;;;6143944;28;83517;-59
2022/09/01 02:46:02;;;;;;;4.72;2.15;;;24.40;54.20;;;;;;6122577;28;83785;-57
2022/09/01 02:49:04;;;;;;;5.03;2.03;;;24.40;54.70;;;;;;6127813;28;81329;-58
2022/09/01 02:52:05;;;;;;;6.45;2.08;;;24.40;54.10;;;;;;6130314;28;83009;-59
2022/09/01 02:55:05;;;;;;;2.50;1.48;;;24.40;54.10;;;;;;6128675;28;80790;-61
2022/09/01 02:58:09;;;;;;;2.95;1.95;;;24.30;53.90;;;;;;6136089;28;83246;-61
2022/09/01 03:01:10;;;;;;;3.63;2.42;;;24.40;54.00;;;;;;6163180;28;83613;-62
2022/09/01 03:04:11;;;;;;;2.65;1.60;;;24.40;53.90;;;;;;6161991;28;82792;-63
2022/09/01 03:07:12;;;;;;;2.83;1.88;;;24.40;54.00;;;;;;6120867;28;82273;-63
2022/09/01 03:10:15;;;;;;;4.25;2.20;;;24.40;53.90;;;;;;6108962;28;82264;-64
2022/09/01 03:13:15;;;;;;;3.92;2.20;;;24.40;53.70;;;;;;6131686;28;88081;-62
2022/09/01 03:16:16;;;;;;;6.68;2.88;;;24.40;53.70;;;;;;6128834;28;81656;-62
2022/09/01 03:19:18;;;;;;;6.10;2.90;;;24.40;53.80;;;;;;6138463;28;82739;-61
2022/09/01 03:22:19;;;;;;;2.70;2.08;;;24.40;54.00;;;;;;6147943;28;82291;-62
2022/09/01 03:25:21;;;;;;;4.43;2.33;;;24.40;53.90;;;;;;6134444;28;86617;-62
2022/09/01 03:28:22;;;;;;;3.35;2.10;;;24.40;53.90;;;;;;6155166;28;85978;-62
2022/09/01 03:31:26;;;;;;;3.75;1.92;;;24.40;54.00;;;;;;6135327;28;80460;-63
2022/09/01 03:34:27;;;;;;;3.15;1.98;;;24.40;54.10;;;;;;6144143;28;83274;-62
2022/09/01 03:37:28;;;;;;;3.00;1.98;;;24.40;54.10;;;;;;6143646;28;82768;-60
2022/09/01 03:40:31;;;;;;;2.97;1.80;;;24.40;54.40;;;;;;6129716;28;83519;-63
2022/09/01 03:43:32;;;;;;;3.75;2.00;;;24.40;54.40;;;;;;6116387;28;83871;-63
2022/09/01 03:46:33;;;;;;;3.33;2.38;;;24.50;54.50;;;;;;6094191;28;81020;-74
2022/09/01 03:49:34;;;;;;;6.03;2.30;;;24.50;55.30;;;;;;6122660;28;82860;-62
2022/09/01 03:52:35;;;;;;;4.20;2.20;;;24.60;54.70;;;;;;6118568;28;83480;-64
2022/09/01 03:55:37;;;;;;;4.35;1.95;;;24.60;54.80;;;;;;6121330;28;82110;-65
2022/09/01 03:58:38;;;;;;;2.35;1.75;;;24.50;54.90;;;;;;6155119;28;81868;-64
2022/09/01 04:01:40;;;;;;;2.67;1.90;;;24.50;54.90;;;;;;6134627;28;80616;-63
2022/09/01 04:04:41;;;;;;;2.97;2.15;;;24.50;54.90;;;;;;6144843;28;83852;-63
2022/09/01 04:07:44;;;;;;;5.88;2.50;;;24.50;55.10;;;;;;6149288;28;82936;-64
2022/09/01 04:10:48;;;;;;;5.88;2.00;;;24.50;55.20;;;;;;6144709;28;81493;-58
2022/09/01 04:13:49;;;;;;;5.65;2.60;;;24.60;55.40;;;;;;6143464;28;82625;-58
2022/09/01 04:20:09;;;;;;;7.72;3.28;;;24.50;55.30;;;;;;6147546;28;83673;-58
2022/09/01 04:23:10;;;;;;;5.45;2.75;;;24.50;55.50;;;;;;6152589;28;81264;-60
2022/09/01 04:26:13;;;;;;;8.13;2.30;;;24.50;55.70;;;;;;6155303;28;83054;-64
2022/09/01 04:29:17;;;;;;;8.57;2.35;;;24.60;55.80;;;;;;6144300;28;83511;-64
2022/09/01 04:32:20;;;;;;;10.13;2.58;;;24.50;56.00;;;;;;6154230;28;83392;-64
2022/09/01 04:35:31;;;;;;;10.45;2.75;;;24.50;56.30;;;;;;6135477;28;87342;-61
2022/09/01 04:38:34;;;;;;;11.43;3.33;;;24.50;56.10;;;;;;6113357;28;83545;-61
2022/09/01 04:41:37;;;;;;;8.10;2.17;;;24.40;55.30;;;;;;6125116;28;83737;-61
2022/09/01 04:44:39;;;;;;;5.72;2.55;;;24.30;54.90;;;;;;6132937;28;83648;-64
2022/09/01 04:47:41;;;;;;;20.05;3.63;;;24.30;54.80;;;;;;6123108;28;82048;-62
2022/09/01 04:50:41;;;;;;;12.40;2.72;;;24.30;54.80;;;;;;6126204;28;85905;-63
2022/09/01 04:53:57;;;;;;;;;;;24.30;54.80;;;;;;6127562;28;80168;-62
2022/09/01 04:56:59;;;;;;;3.83;2.53;;;24.20;54.70;;;;;;6160368;28;83077;-66
2022/09/01 05:00:01;;;;;;;10.38;2.25;;;24.20;54.70;;;;;;6138452;28;80495;-64
2022/09/01 05:03:03;;;;;;;6.35;2.90;;;24.20;55.10;;;;;;6128040;28;86955;-61
2022/09/01 05:06:12;;;;;;;8.07;2.72;;;24.30;55.00;;;;;;6128065;28;82432;-58
2022/09/01 05:09:16;;;;;;;8.07;2.65;;;24.20;54.60;;;;;;6137079;28;85477;-60
2022/09/01 05:12:28;;;;;;;7.55;2.28;;;24.20;54.10;;;;;;6168160;28;83018;-59
2022/09/01 05:15:29;;;;;;;5.95;2.30;;;24.10;53.70;;;;;;6146528;28;83142;-60
2022/09/01 05:18:30;;;;;;;7.28;2.50;;;24.10;53.50;;;;;;6143147;28;83201;-58
2022/09/01 05:21:31;;;;;;;3.58;2.15;;;24.10;53.10;;;;;;6127445;28;82734;-59
2022/09/01 05:24:33;;;;;;;11.68;2.67;;;24.10;53.00;;;;;;6130057;28;83040;-58
2022/09/01 05:27:38;;;;;;;5.35;1.90;;;24.10;52.90;;;;;;6148191;28;85799;-58
2022/09/01 05:30:39;;;;;;;3.88;2.42;;;24.00;52.90;;;;;;6142841;28;83221;-58
2022/09/01 05:33:44;;;;;;;4.28;2.25;;;24.00;53.00;;;;;;6125486;28;83280;-58
2022/09/01 05:36:45;;;;;;;3.67;1.90;;;24.00;52.70;;;;;;6157802;28;82571;-58
2022/09/01 05:39:46;;;;;;;6.10;2.00;;;24.00;52.70;;;;;;6152805;28;83431;-57
2022/09/01 05:42:46;;;;;;;4.82;1.98;;;24.00;53.00;;;;;;6121934;28;82837;-57
2022/09/01 05:45:48;;;;;;;10.18;2.55;;;24.00;53.30;;;;;;6152121;28;82198;-58
2022/09/01 05:48:49;;;;;;;4.43;1.88;;;24.00;52.50;;;;;;6141833;28;83230;-57
2022/09/01 05:51:51;;;;;;;5.32;2.47;;;23.90;52.30;;;;;;6131772;28;85488;-58
2022/09/01 05:54:53;;;;;;;5.93;1.85;;;24.00;52.30;;;;;;6136894;28;83605;-57
2022/09/01 05:57:54;;;;;;;3.75;1.80;;;23.90;52.30;;;;;;6147178;28;82902;-57
2022/09/01 06:00:57;;;;;;;5.43;1.70;;;23.90;52.20;;;;;;6163342;28;82994;-58
2022/09/01 06:03:58;;;;;;;5.20;2.58;;;24.00;52.20;;;;;;6166132;28;83459;-58
2022/09/01 06:07:08;;;;;;;5.20;2.27;;;23.90;52.20;;;;;;6143314;28;86134;-57
2022/09/01 06:10:13;;;;;;;5.93;2.35;;;24.00;52.20;;;;;;6149938;28;83480;-58
2022/09/01 06:13:15;;;;;;;4.63;2.25;;;24.00;52.00;;;;;;6149253;28;83323;-58
2022/09/01 06:16:18;;;;;;;6.57;2.70;;;24.00;51.90;;;;;;6133704;28;83018;-58
2022/09/01 06:19:19;;;;;;;5.70;2.38;;;24.00;51.90;;;;;;6140936;28;81435;-57
2022/09/01 06:22:22;;;;;;;4.55;2.53;;;24.00;51.80;;;;;;6139665;28;82866;-60
2022/09/01 06:25:25;;;;;;;6.07;2.53;;;24.00;51.70;;;;;;6137051;28;87139;-58
2022/09/01 06:28:28;;;;;;;9.90;2.97;;;23.90;51.80;;;;;;6153689;28;83065;-58
2022/09/01 06:31:32;;;;;;;11.23;3.08;;;23.90;51.80;;;;;;6149864;28;82785;-58
2022/09/01 06:34:35;;;;;;;8.02;2.63;;;23.90;51.90;;;;;;6143036;28;81321;-58
2022/09/01 06:37:37;;;;;;;6.80;3.40;;;23.90;51.90;;;;;;6148068;28;83295;-58
2022/09/01 06:40:39;;;;;;;12.43;2.63;;;23.80;51.90;;;;;;6164886;28;86334;-58
2022/09/01 06:43:40;;;;;;;8.88;3.92;;;23.80;52.00;;;;;;6130852;28;83084;-58
2022/09/01 06:46:41;;;;;;;3.88;2.13;;;23.80;52.20;;;;;;6123162;28;83029;-58
2022/09/01 06:49:43;;;;;;;6.22;2.63;;;23.80;52.10;;;;;;6123012;28;82649;-58
2022/09/01 06:53:00;;;;;;;5.45;2.40;;;23.80;52.10;;;;;;6129114;28;81334;-57
2022/09/01 06:56:01;;;;;;;7.68;3.03;;;23.80;52.50;;;;;;6126740;28;85908;-57
2022/09/01 06:59:04;;;;;;;4.13;2.30;;;23.90;52.50;;;;;;6150397;28;81590;-58
2022/09/01 07:02:07;;;;;;;6.55;3.40;;;23.90;52.10;;;;;;6133580;28;83651;-57
2022/09/01 07:05:26;;;;;;;4.18;2.40;;;24.00;52.30;;;;;;6134456;28;86153;-57
2022/09/01 07:08:26;;;;;;;13.45;2.35;;;24.00;51.90;;;;;;6126283;28;82178;-60
2022/09/01 07:11:40;;;;;;;5.43;2.33;;;24.00;52.00;;;;;;6146020;28;81807;-57
2022/09/01 07:14:40;;;;;;;4.78;2.05;;;24.00;52.50;;;;;;6139942;28;82126;-55
2022/09/01 07:17:41;;;;;;;20.02;2.38;;;24.00;51.90;;;;;;6128871;28;83086;-55
2022/09/01 07:20:42;;;;;;;5.60;1.90;;;24.00;51.80;;;;;;6119355;28;81477;-58
2022/09/01 07:23:42;;;;;;;2.42;1.52;;;24.00;51.80;;;;;;6112708;28;80037;-54
2022/09/01 07:26:48;;;;;;;5.68;1.83;;;24.00;51.30;;;;;;6142785;28;81874;-56
2022/09/01 07:29:55;;;;;;;2.67;1.92;;;24.00;51.60;;;;;;6107776;28;82842;-55
2022/09/01 07:32:56;;;;;;;3.60;1.52;;;24.10;51.60;;;;;;6139881;28;83483;-56
2022/09/01 07:35:58;;;;;;;5.05;2.05;;;24.10;51.20;;;;;;6134641;28;83261;-54
2022/09/01 07:39:00;;;;;;;2.13;1.60;;;24.00;50.90;;;;;;6139152;28;83389;-55
2022/09/01 07:42:08;;;;;;;2.17;1.90;;;24.10;50.80;;;;;;6126449;28;82625;-55
2022/09/01 07:45:29;;;;;;;3.08;1.50;;;24.00;50.90;;;;;;6130868;28;81216;-55
2022/09/01 07:48:34;;;;;;;5.78;2.08;;;24.00;51.20;;;;;;6156235;28;83200;-60
2022/09/01 07:51:35;;;;;;;4.90;1.42;;;24.00;51.10;;;;;;6140990;28;85826;-60
2022/09/01 07:54:36;;;;;;;5.05;1.55;;;24.00;51.50;;;;;;6125312;28;82088;-59
2022/09/01 07:57:37;;;;;;;1.95;1.30;;;24.10;51.10;;;;;;6145233;28;82751;-60
2022/09/01 08:00:39;;;;;;;5.35;1.65;;;24.10;50.70;;;;;;6124394;28;81641;-60
2022/09/01 08:03:41;;;;;;;3.35;1.58;;;24.10;50.60;;;;;;6120575;28;82421;-60
2022/09/01 08:06:42;;;;;;;3.33;1.60;;;24.00;50.20;;;;;;6141657;28;83292;-55
2022/09/01 08:09:42;;;;;;;3.83;1.50;;;24.00;50.20;;;;;;6143730;28;80641;-55
2022/09/01 08:12:43;;;;;;;1.23;1.13;;;24.00;50.80;;;;;;6140225;28;82472;-57
2022/09/01 08:15:43;;;;;;;1.60;1.30;;;24.00;50.90;;;;;;6145030;28;82065;-56
2022/09/01 08:18:46;;;;;;;3.08;1.30;;;24.10;50.70;;;;;;6145659;28;83257;-55
2022/09/01 08:21:53;;;;;;;3.60;1.50;;;24.00;50.50;;;;;;6155603;28;82265;-55
2022/09/01 08:25:00;;;;;;;6.10;1.45;;;24.10;50.40;;;;;;6142514;28;83994;-54
2022/09/01 08:28:01;;;;;;;3.25;1.80;;;24.10;51.40;;;;;;6125408;28;83329;-55
2022/09/01 08:31:03;;;;;;;1.63;1.23;;;24.10;50.70;;;;;;6128335;28;82307;-56
2022/09/01 08:34:04;;;;;;;1.63;1.23;;;24.00;51.50;;;;;;6128587;28;80009;-56
2022/09/01 08:37:05;;;;;;;1.40;1.25;;;24.10;51.10;;;;;;6126954;28;81923;-55
2022/09/01 08:40:05;;;;;;;1.80;1.55;;;24.10;50.80;;;;;;6145314;28;82801;-55
2022/09/01 08:43:06;;;;;;;3.33;1.80;;;24.10;51.10;;;;;;6145782;28;83087;-60
2022/09/01 08:46:07;;;;;;;1.45;1.25;;;24.20;50.60;;;;;;6138791;28;85218;-60
2022/09/01 08:49:09;;;;;;;2.10;1.50;;;24.20;50.40;;;;;;6153101;28;83561;-59
2022/09/01 08:52:30;;;;;;;2.65;1.35;;;24.20;51.20;;;;;;6107307;28;82261;-59
2022/09/01 08:55:33;;;;;;;2.22;1.30;;;24.20;50.90;;;;;;6156554;28;83107;-60
2022/09/01 08:58:33;;;;;;;2.63;1.58;;;24.20;50.30;;;;;;6145333;28;80323;-60
2022/09/01 09:01:37;;;;;;;1.30;1.20;;;24.20;50.30;;;;;;6126606;28;82971;-60
2022/09/01 09:04:37;;;;;;;5.32;1.80;;;24.20;50.20;;;;;;6126960;28;80509;-60
2022/09/01 09:07:38;;;;;;;4.00;1.80;;;24.20;50.40;;;;;;6123199;28;86202;-60
2022/09/01 09:10:38;;;;;;;5.78;2.40;;;24.20;50.10;;;;;;6129595;28;80973;-60
2022/09/01 09:13:39;;;;;;;3.08;1.67;;;24.20;49.90;;;;;;6117872;28;82730;-60
2022/09/01 09:16:39;;;;;;;2.40;1.67;;;24.20;49.50;;;;;;6105294;28;85157;-60
2022/09/01 09:19:40;;;;;;;6.75;1.90;;;24.20;49.30;;;;;;6119001;28;81579;-61
2022/09/01 09:22:40;;;;;;;4.85;1.63;;;24.20;49.30;;;;;;6119309;28;80413;-61
2022/09/01 09:25:41;;;;;;;19.40;3.38;;;24.20;49.20;;;;;;6116299;28;83105;-60
2022/09/01 09:28:41;;;;;;;2.30;1.35;;;24.30;49.60;;;;;;6109914;28;83503;-63
2022/09/01 09:31:44;;;;;;;1.40;1.30;;;24.30;49.30;;;;;;6120964;28;80320;-58
2022/09/01 09:34:45;;;;;;;1.95;1.40;;;24.30;48.80;;;;;;6120497;28;83092;-60
2022/09/01 09:37:45;;;;;;;10.73;1.58;;;24.30;48.10;;;;;;6117283;28;85506;-62
2022/09/01 09:40:45;;;;;;;7.25;2.10;;;24.30;48.40;;;;;;6127597;28;82093;-59
2022/09/01 09:43:47;;;;;;;1.58;1.10;;;24.30;48.10;;;;;;6118182;28;81955;-59
2022/09/01 09:46:47;;;;;;;3.95;1.70;;;24.20;47.80;;;;;;6035323;28;87205;-60
2022/09/01 09:49:48;;;;;;;3.22;1.60;;;24.20;47.60;;;;;;6122582;28;87512;-59
2022/09/01 09:52:48;;;;;;;1.05;0.95;;;24.30;47.10;;;;;;6128573;28;80611;-61
2022/09/01 09:55:49;;;;;;;4.57;1.30;;;24.20;46.40;;;;;;6128089;28;86156;-60
2022/09/01 09:58:49;;;;;;;3.88;1.05;;;24.30;46.40;;;;;;6124082;28;80208;-60
2022/09/01 10:01:50;;;;;;;2.78;1.20;;;24.20;45.70;;;;;;6124885;28;80512;-60
2022/09/01 10:04:50;;;;;;;2.47;1.30;;;24.20;45.40;;;;;;6123884;28;80053;-60
2022/09/01 10:07:51;;;;;;;2.38;1.08;;;24.20;45.80;;;;;;6122873;28;82909;-61
2022/09/01 10:10:51;;;;;;;2.38;1.13;;;24.30;45.70;;;;;;6121418;28;80785;-59
2022/09/01 10:13:52;;;;;;;1.85;1.20;;;24.30;45.90;;;;;;6123380;28;80244;-60
2022/09/01 10:16:53;;;;;;;4.43;2.15;;;24.30;45.90;;;;;;6124720;28;87085;-62
2022/09/01 10:19:53;;;;;;;2.83;1.67;;;24.30;45.70;;;;;;6124599;28;80448;-60
2022/09/01 10:22:54;;;;;;;1.52;1.02;;;24.30;45.90;;;;;;6143087;28;80347;-60
2022/09/01 10:25:55;;;;;;;1.90;1.10;;;24.30;45.80;;;;;;6121520;28;80401;-59
2022/09/01 10:28:55;;;;;;;1.23;1.08;;;24.30;46.30;;;;;;6125019;28;81906;-60
2022/09/01 10:31:55;;;;;;;2.65;1.10;;;24.30;45.00;;;;;;6123310;28;80204;-58
2022/09/01 10:34:56;;;;;;;1.52;1.15;;;24.20;44.70;;;;;;6123769;28;81569;-66
2022/09/01 10:37:56;;;;;;;1.10;1.02;;;24.20;44.80;;;;;;6124274;28;81496;-66
2022/09/01 10:41:06;;;;;;;1.65;1.30;;;24.20;45.10;;;;;;6123352;28;81248;-67
2022/09/01 10:44:07;;;;;;;1.45;1.15;;;24.20;44.50;;;;;;6128156;28;80912;-68
2022/09/01 10:47:08;;;;;;;5.25;1.38;;;24.20;44.40;;;;;;6122869;28;80224;-66
2022/09/01 10:50:08;;;;;;;3.40;1.10;;;24.30;44.20;;;;;;6116861;28;86136;-63
2022/09/01 10:53:09;;;;;;;2.55;1.05;;;24.30;43.90;;;;;;6117979;28;80112;-60
2022/09/01 10:56:09;;;;;;;1.33;0.95;;;24.30;43.80;;;;;;6123445;28;81011;-59
2022/09/01 10:59:10;;;;;;;2.47;0.70;;;24.30;43.60;;;;;;6125759;28;81858;-59
2022/09/01 11:02:10;;;;;;;3.88;1.05;;;24.30;43.10;;;;;;6128240;28;80354;-58
2022/09/01 11:05:11;;;;;;;1.50;1.05;;;24.20;43.50;;;;;;6111702;28;81439;-59
2022/09/01 11:08:11;;;;;;;0.98;0.90;;;24.20;43.50;;;;;;6111788;28;80511;-58
2022/09/01 11:11:12;;;;;;;2.30;1.20;;;24.20;43.40;;;;;;6115300;28;81449;-59
2022/09/01 11:14:12;;;;;;;1.73;1.08;;;24.20;43.70;;;;;;6113655;28;81310;-60
2022/09/01 11:17:13;;;;;;;1.27;1.00;;;24.20;43.70;;;;;;6121615;28;84192;-59
2022/09/01 11:20:14;;;;;;;3.70;1.52;;;24.20;43.00;;;;;;6121477;28;80374;-58
2022/09/01 11:23:14;;;;;;;0.80;0.80;;;24.20;43.20;;;;;;6124432;28;83525;-59
2022/09/01 11:26:14;;;;;;;9.63;1.33;;;24.30;43.20;;;;;;6112062;28;80940;-58
2022/09/01 11:29:15;;;;;;;1.63;1.00;;;24.20;43.10;;;;;;6119340;28;80494;-59
2022/09/01 11:32:15;;;;;;;1.30;1.02;;;24.20;43.20;;;;;;6123743;28;79989;-59
2022/09/01 11:35:16;;;;;;;2.38;1.48;;;24.30;43.00;;;;;;6122282;28;80476;-59
2022/09/01 11:38:17;;;;;;;2.47;1.45;;;24.30;42.80;;;;;;6120550;28;80633;-59
2022/09/01 11:41:17;;;;;;;1.08;0.98;;;24.30;42.70;;;;;;6130550;28;81419;-59
2022/09/01 11:44:18;;;;;;;1.67;1.13;;;24.30;42.90;;;;;;6128471;28;80907;-59
2022/09/01 11:47:18;;;;;;;3.67;1.30;;;24.20;43.10;;;;;;6127283;28;80688;-60
2022/09/01 11:50:19;;;;;;;4.75;1.58;;;24.20;43.20;;;;;;6122528;28;80586;-57
2022/09/01 11:53:19;;;;;;;2.63;1.08;;;24.10;43.50;;;;;;6121776;28;80609;-57
2022/09/01 11:56:21;;;;;;;2.15;1.20;;;24.10;43.60;;;;;;6125401;28;80831;-57
2022/09/01 11:59:22;;;;;;;1.42;1.10;;;24.20;43.40;;;;;;6133525;28;85349;-57
2022/09/01 12:02:23;;;;;;;0.98;0.98;;;24.30;43.60;;;;;;6139134;28;80766;-58
2022/09/01 12:05:24;;;;;;;1.30;1.17;;;24.20;43.10;;;;;;6108782;28;80633;-59
2022/09/01 12:08:25;;;;;;;4.10;1.20;;;24.20;42.80;;;;;;6114728;28;80463;-58
2022/09/01 12:11:29;;;;;;;4.03;1.10;;;24.20;42.70;;;;;;6114376;28;80531;-58
2022/09/01 12:14:29;;;;;;;5.80;1.30;;;24.30;43.10;;;;;;6126331;28;83621;-60
2022/09/01 12:17:29;;;;;;;1.17;1.08;;;24.30;42.50;;;;;;6116997;28;80390;-58
2022/09/01 12:20:31;;;;;;;1.10;1.00;;;24.30;42.80;;;;;;6119120;28;80451;-61
2022/09/01 12:23:31;;;;;;;0.85;0.82;;;24.30;42.70;;;;;;6125208;28;83128;-58
2022/09/01 12:26:32;;;;;;;2.47;1.23;;;24.40;42.90;;;;;;6109827;28;80840;-58
2022/09/01 12:29:32;;;;;;;1.15;0.82;;;24.40;42.50;;;;;;6116175;28;81430;-58
2022/09/01 12:32:33;;;;;;;1.73;1.20;;;24.30;42.40;;;;;;6117520;28;81195;-58
2022/09/01 12:35:33;;;;;;;3.03;1.10;;;24.30;42.40;;;;;;6121580;28;80375;-58
2022/09/01 12:38:34;;;;;;;3.08;0.90;;;24.40;42.70;;;;;;6120761;28;80702;-58
2022/09/01 12:41:34;;;;;;;3.55;1.20;;;24.40;42.70;;;;;;6128881;28;80801;-58
2022/09/01 12:44:35;;;;;;;1.00;1.00;;;24.40;42.40;;;;;;6126071;28;80657;-58
2022/09/01 12:47:36;;;;;;;2.00;1.20;;;24.40;42.00;;;;;;6116949;28;80612;-58
2022/09/01 12:50:36;;;;;;;1.55;1.17;;;24.40;42.00;;;;;;6118622;28;82817;-58
2022/09/01 12:53:37;;;;;;;1.98;1.05;;;24.40;41.90;;;;;;6122583;28;81949;-58
2022/09/01 12:56:37;;;;;;;1.55;0.80;;;24.40;41.00;;;;;;6125621;28;81861;-58
2022/09/01 12:59:38;;;;;;;1.25;1.15;;;24.40;41.00;;;;;;6123759;28;83703;-57
2022/09/01 13:02:38;;;;;;;1.10;0.90;;;24.40;41.00;;;;;;6124570;28;80251;-58
2022/09/01 13:05:39;;;;;;;1.15;1.08;;;24.40;40.50;;;;;;6104319;28;80796;-57
2022/09/01 13:08:40;;;;;;;1.60;1.20;;;24.40;40.60;;;;;;6111245;28;80385;-58
2022/09/01 13:11:46;;;;;;;1.38;0.90;;;24.30;40.00;;;;;;6112727;28;81488;-58
2022/09/01 13:14:46;;;;;;;1.58;1.17;;;24.30;40.10;;;;;;6109709;28;84939;-57
2022/09/01 13:17:47;;;;;;;0.80;0.80;;;24.30;40.30;;;;;;6115147;28;80824;-62
2022/09/01 13:20:47;;;;;;;1.02;0.88;;;24.30;40.40;;;;;;6105746;28;81918;-61
2022/09/01 13:23:49;;;;;;;3.53;1.02;;;24.30;40.50;;;;;;6113885;28;80586;-62
2022/09/01 13:26:54;;;;;;;1.27;1.02;;;24.30;40.90;;;;;;6120745;28;80889;-62
2022/09/01 13:29:55;;;;;;;3.30;0.90;;;24.40;40.80;;;;;;6125018;28;80924;-62
2022/09/01 13:32:56;;;;;;;0.93;0.90;;;24.40;40.80;;;;;;6129379;28;80670;-61
2022/09/01 13:35:57;;;;;;;1.13;0.73;;;24.40;40.70;;;;;;6112447;28;81390;-61
2022/09/01 13:38:57;;;;;;;1.23;0.90;;;24.40;40.60;;;;;;6131533;28;83719;-61
2022/09/01 13:41:58;;;;;;;1.13;1.02;;;24.40;40.40;;;;;;6125661;28;80443;-62
2022/09/01 13:44:59;;;;;;;1.50;1.30;;;24.40;40.00;;;;;;6124856;28;80413;-62
2022/09/01 13:48:02;;;;;;;2.25;0.80;;;24.40;40.10;;;;;;6142236;28;81471;-61
2022/09/01 13:51:02;;;;;;;5.40;1.13;;;24.40;40.30;;;;;;6104556;28;80978;-61
2022/09/01 13:54:03;;;;;;;1.75;1.02;;;24.30;40.40;;;;;;6115334;28;80655;-62
2022/09/01 13:57:03;;;;;;;2.25;1.23;;;24.40;40.50;;;;;;6129573;28;81146;-56
2022/09/01 14:00:04;;;;;;;1.42;1.15;;;24.30;41.00;;;;;;6123328;28;80397;-54
2022/09/01 14:03:11;;;;;;;6.60;1.52;;;24.30;41.00;;;;;;6123714;28;80222;-58
2022/09/01 14:06:12;;;;;;;7.20;1.02;;;24.40;41.20;;;;;;6103950;28;80468;-57
2022/09/01 14:09:12;;;;;;;1.20;1.02;;;24.30;41.00;;;;;;6106414;28;83779;-56
2022/09/01 14:12:13;;;;;;;1.85;1.00;;;24.30;40.80;;;;;;6118591;28;81245;-56
2022/09/01 14:15:13;;;;;;;1.42;1.05;;;24.40;40.80;;;;;;6122136;28;80376;-56
2022/09/01 14:18:15;;;;;;;2.42;0.70;;;24.30;40.40;;;;;;6119954;28;80459;-55
2022/09/01 14:21:15;;;;;;;1.50;0.93;;;24.30;40.10;;;;;;6121175;28;81993;-55
2022/09/01 14:24:18;;;;;;;1.38;1.00;;;24.30;40.00;;;;;;6122875;28;80668;-55
2022/09/01 14:27:19;;;;;;;1.35;0.98;;;24.30;40.10;;;;;;6122767;28;83933;-56
2022/09/01 14:30:19;;;;;;;1.80;0.93;;;24.30;40.30;;;;;;6120848;28;80119;-56
2022/09/01 14:33:23;;;;;;;2.53;1.20;;;24.30;40.50;;;;;;6110857;28;80594;-58
2022/09/01 14:36:23;;;;;;;1.15;1.02;;;24.30;40.50;;;;;;6115098;28;81405;-57
2022/09/01 14:39:24;;;;;;;3.05;1.00;;;24.30;40.50;;;;;;6125652;28;80831;-58
2022/09/01 14:42:24;;;;;;;0.98;0.95;;;24.30;40.40;;;;;;6120159;28;80522;-60
2022/09/01 14:45:25;;;;;;;4.80;1.15;;;24.30;40.60;;;;;;6125177;28;86044;-59
2022/09/01 14:48:25;;;;;;;1.13;1.00;;;24.40;41.10;;;;;;6113449;28;80471;-65
2022/09/01 14:51:26;;;;;;;3.15;1.23;;;24.30;40.40;;;;;;6111045;28;80942;-58
2022/09/01 14:54:26;;;;;;;1.50;0.80;;;24.30;40.10;;;;;;6102175;28;80195;-57
2022/09/01 14:57:27;;;;;;;3.75;1.63;;;24.30;39.30;;;;;;6114058;28;81124;-56
2022/09/01 15:00:27;;;;;;;6.90;1.50;;;24.30;39.40;;;;;;6115067;28;81319;-57
2022/09/01 15:03:27;;;;;;;4.50;1.05;;;24.20;40.10;;;;;;6110156;28;83668;-57
2022/09/01 15:06:28;;;;;;;8.20;1.10;;;24.20;39.90;;;;;;6111857;28;81689;-58
2022/09/01 15:09:28;;;;;;;1.95;1.08;;;24.20;40.10;;;;;;6124721;28;83816;-58
2022/09/01 15:12:29;;;;;;;2.65;1.08;;;24.30;40.30;;;;;;6127038;28;84699;-58
2022/09/01 15:15:30;;;;;;;3.70;1.10;;;24.30;40.90;;;;;;6124162;28;80910;-59
2022/09/01 15:18:30;;;;;;;2.75;0.95;;;24.30;40.50;;;;;;6140371;28;83564;-59
2022/09/01 15:21:32;;;;;;;1.05;1.00;;;24.30;40.20;;;;;;6124376;28;80324;-58
2022/09/01 15:24:33;;;;;;;8.52;1.17;;;24.30;39.90;;;;;;6112362;28;82578;-59
2022/09/01 15:27:33;;;;;;;3.03;1.10;;;24.30;39.50;;;;;;6119984;28;80060;-60
2022/09/01 15:30:34;;;;;;;1.00;0.90;;;24.30;39.80;;;;;;6128068;28;80731;-59
2022/09/01 15:33:34;;;;;;;1.40;1.00;;;24.30;39.30;;;;;;6119485;28;83468;-59
2022/09/01 15:36:35;;;;;;;4.72;1.10;;;24.30;39.10;;;;;;6106829;28;81961;-60
2022/09/01 15:39:35;;;;;;;1.10;0.98;;;24.30;39.40;;;;;;6099680;28;83406;-59
2022/09/01 15:42:36;;;;;;;1.00;0.80;;;24.30;39.40;;;;;;6125600;28;80666;-59
2022/09/01 15:45:38;;;;;;;2.00;1.00;;;24.30;39.50;;;;;;6107350;28;84370;-55
2022/09/01 15:48:38;;;;;;;10.70;1.38;;;24.30;39.90;;;;;;6120693;28;81243;-58
2022/09/01 15:51:39;;;;;;;1.85;0.98;;;24.40;39.90;;;;;;6102794;28;82599;-56
2022/09/01 15:54:40;;;;;;;1.27;1.00;;;24.30;40.90;;;;;;6122832;28;80721;-58